Tropical Cyclones
[Index]
Main Index Home Page Stock Weather Photos Extreme Storms Discussion Storm News and Storm Chasing Reports Tropical Cyclones / Hurricanes / Typhoons Weather Data and Links Wild Fires / Bushfires Weather Observation Techniques Weather Picture Catalogue Tornado Pictures and Reports Stock Video Footage and DVDs for sale
Season 2009-2010 Tropical Cyclone EDZANI Track Map
Season 2009-2010 Summaries: [BoM-AU] [JTWC-AU] [JTWC-SIO] [JTWC-SPAC] [JTWC-SH]
<<- Previous TC | JTWC 2009-2010 Season | Next TC ->>

click for intensity scale information  Lat/long Grid: Show Hide

 Date Labels: Show Hide

Joint Typhoon Warning Centre Cyclone Data

Name: EDZANI

01 Jan 2010 12:00 UTC to 15 Jan 2010 00:00 UTC

    date/time    lat    long     hPa   cat  kts
2010-01-01 12    9.2    95.7    1010         15          
2010-01-01 18    9.8    95.3    1004         25          
2010-01-02 00   10.2    94.7    1004         25          
2010-01-02 06   10.4    94.0    1000         30          
2010-01-02 12   10.4    93.3    1000         30          
2010-01-02 18   10.4    93.1    1000         30          
2010-01-03 00   10.3    92.9    1000         30          
2010-01-03 06   10.2    92.8    1004         25          
2010-01-03 12   10.4    92.4    1004         25          
2010-01-03 18   10.4    91.8    1004         25          
2010-01-04 00   10.4    90.4    1004         25          
2010-01-04 06   10.4    89.2    1004         25          
2010-01-04 12   10.3    88.3    1000         30          
2010-01-04 18   10.8    87.6    1000         30          
2010-01-05 00   11.0    86.7    1000         30          
2010-01-05 06   11.3    85.8    1000         30          
2010-01-05 12   11.8    85.1    1000         30          
2010-01-05 18   12.3    84.5    1000         30          
2010-01-06 00   12.4    83.6     996         35          
2010-01-06 06   12.6    82.7     993    1    40          
2010-01-06 12   13.1    81.8     989    1    45          
2010-01-06 18   13.6    81.0     989    1    45          
2010-01-07 00   13.8    80.4     978    2    60          
2010-01-07 00   13.8    80.4     978    2    60          
2010-01-07 06   14.1    80.0     963    3    80          
2010-01-07 06   14.1    80.0     963    3    80          
2010-01-07 06   14.1    80.0     963    3    80          
2010-01-07 12   14.6    79.7     944    4   105          
2010-01-07 12   14.6    79.7     944    4   105          
2010-01-07 12   14.6    79.7     944    4   105          
2010-01-07 18   14.9    78.9     933    4   120          
2010-01-07 18   14.9    78.9     933    4   120          
2010-01-07 18   14.9    78.9     933    4   120          
2010-01-08 00   15.2    78.3     929    5   125          
2010-01-08 00   15.2    78.3     929    5   125          
2010-01-08 00   15.2    78.3     929    5   125          
2010-01-08 06   15.6    77.7     929    5   125          
2010-01-08 06   15.6    77.7     929    5   125          
2010-01-08 06   15.6    77.7     929    5   125          
2010-01-08 12   16.1    77.1     918    5   140          
2010-01-08 12   16.1    77.1     918    5   140          
2010-01-08 12   16.1    77.1     918    5   140          
2010-01-08 18   16.4    76.2     918    5   140          
2010-01-08 18   16.4    76.2     918    5   140          
2010-01-08 18   16.4    76.2     918    5   140          
2010-01-09 00   17.0    75.4     926    5   130          
2010-01-09 00   17.0    75.4     926    5   130          
2010-01-09 00   17.0    75.4     926    5   130          
2010-01-09 06   17.6    74.7     933    4   120          
2010-01-09 06   17.6    74.7     933    4   120          
2010-01-09 06   17.6    74.7     933    4   120          
2010-01-09 12   18.2    73.7     937    4   115          
2010-01-09 12   18.2    73.7     937    4   115          
2010-01-09 12   18.2    73.7     937    4   115          
2010-01-09 18   19.1    73.0     941    4   110          
2010-01-09 18   19.1    73.0     941    4   110          
2010-01-09 18   19.1    73.0     941    4   110          
2010-01-10 00   20.0    72.3     944    4   105          
2010-01-10 00   20.0    72.3     944    4   105          
2010-01-10 00   20.0    72.3     944    4   105          
2010-01-10 06   21.0    71.7     948    4   100          
2010-01-10 06   21.0    71.7     948    4   100          
2010-01-10 06   21.0    71.7     948    4   100          
2010-01-10 12   22.2    71.3     956    3    90          
2010-01-10 12   22.2    71.3     956    3    90          
2010-01-10 12   22.2    71.3     956    3    90          
2010-01-10 18   23.4    71.3     967    3    75          
2010-01-10 18   23.4    71.3     967    3    75          
2010-01-10 18   23.4    71.3     967    3    75          
2010-01-11 00   24.2    71.3     970    2    70          
2010-01-11 00   24.2    71.3     970    2    70          
2010-01-11 00   24.2    71.3     970    2    70          
2010-01-11 06   24.9    71.8     978    2    60          
2010-01-11 06   24.9    71.8     978    2    60          
2010-01-11 12   25.4    72.4     985    1    50          
2010-01-11 18   25.8    73.1     989    1    45          
2010-01-12 00   26.0    72.4     989    1    45          
2010-01-12 06   26.0    71.6     989    1    45          
2010-01-12 12   26.4    70.7     989    1    45          
2010-01-12 18   26.7    69.8     989    1    45          
2010-01-13 00   27.3    68.9     989    1    45          
2010-01-13 06   28.2    68.0     989    1    45          
2010-01-13 12   29.3    67.5     993    1    40          
2010-01-13 18   30.4    67.3     993    1    40          
2010-01-14 00   31.7    67.5     993    1    40          
2010-01-14 06   33.4    68.1     993    1    40          
2010-01-14 12   34.7    69.6     996         35          
2010-01-14 18   36.6    72.7     996         35          
2010-01-15 00   38.0    76.6     996         35          
Winds are 1-min average.

Tropical cyclone tracks developed by Michael Bath using data from the Joint Typhoon Warning Centre Best Tracks and Google Maps.


[Australian Severe Weather index] [Copyright Notice] [Email Contacts] [Search This Site] [Privacy Policy]
Document: tropical_cyclone_edzani.htm Updated: 28 June 2017